sensor_id;sensor_type;location;lat;lon;timestamp;P1;durP1;ratioP1;P2;durP2;ratioP2
59308;SDS011;48433;53.016;-2.260;2022-12-18T00:01:26;14.52;;;6.30;;
59308;SDS011;48433;53.016;-2.260;2022-12-18T00:04:02;13.50;;;7.15;;
59308;SDS011;48433;53.016;-2.260;2022-12-18T00:06:30;14.75;;;8.63;;
59308;SDS011;48433;53.016;-2.260;2022-12-18T00:08:59;15.18;;;8.18;;
59308;SDS011;48433;53.016;-2.260;2022-12-18T00:11:28;12.25;;;6.68;;
59308;SDS011;48433;53.016;-2.260;2022-12-18T00:13:57;11.65;;;6.85;;
59308;SDS011;48433;53.016;-2.260;2022-12-18T00:16:26;12.52;;;6.40;;
59308;SDS011;48433;53.016;-2.260;2022-12-18T00:18:57;14.70;;;6.73;;
59308;SDS011;48433;53.016;-2.260;2022-12-18T00:21:25;13.43;;;6.38;;
59308;SDS011;48433;53.016;-2.260;2022-12-18T00:23:54;15.45;;;6.43;;
59308;SDS011;48433;53.016;-2.260;2022-12-18T00:26:23;12.35;;;6.57;;
59308;SDS011;48433;53.016;-2.260;2022-12-18T00:28:59;11.43;;;5.72;;
59308;SDS011;48433;53.016;-2.260;2022-12-18T00:31:30;12.88;;;6.78;;
59308;SDS011;48433;53.016;-2.260;2022-12-18T00:34:00;13.27;;;6.60;;
59308;SDS011;48433;53.016;-2.260;2022-12-18T00:36:29;11.88;;;5.80;;
59308;SDS011;48433;53.016;-2.260;2022-12-18T00:38:59;11.32;;;6.05;;
59308;SDS011;48433;53.016;-2.260;2022-12-18T00:41:27;11.77;;;6.00;;
59308;SDS011;48433;53.016;-2.260;2022-12-18T00:44:15;10.25;;;5.60;;
59308;SDS011;48433;53.016;-2.260;2022-12-18T00:46:45;10.02;;;5.78;;
59308;SDS011;48433;53.016;-2.260;2022-12-18T00:49:14;14.23;;;6.57;;
59308;SDS011;48433;53.016;-2.260;2022-12-18T00:51:42;12.02;;;6.72;;
59308;SDS011;48433;53.016;-2.260;2022-12-18T00:54:10;12.77;;;6.82;;
59308;SDS011;48433;53.016;-2.260;2022-12-18T00:56:38;15.27;;;7.03;;
59308;SDS011;48433;53.016;-2.260;2022-12-18T00:59:15;10.73;;;6.60;;
59308;SDS011;48433;53.016;-2.260;2022-12-18T01:01:43;14.35;;;6.43;;
59308;SDS011;48433;53.016;-2.260;2022-12-18T01:04:11;18.10;;;6.25;;
59308;SDS011;48433;53.016;-2.260;2022-12-18T01:06:39;11.70;;;6.68;;
59308;SDS011;48433;53.016;-2.260;2022-12-18T01:09:09;15.00;;;6.03;;
59308;SDS011;48433;53.016;-2.260;2022-12-18T01:11:36;13.73;;;6.93;;
59308;SDS011;48433;53.016;-2.260;2022-12-18T01:14:10;11.35;;;6.75;;
59308;SDS011;48433;53.016;-2.260;2022-12-18T01:16:38;20.27;;;7.20;;
59308;SDS011;48433;53.016;-2.260;2022-12-18T01:19:06;11.15;;;6.10;;
59308;SDS011;48433;53.016;-2.260;2022-12-18T01:21:34;12.30;;;6.45;;
59308;SDS011;48433;53.016;-2.260;2022-12-18T01:24:03;14.48;;;6.28;;
59308;SDS011;48433;53.016;-2.260;2022-12-18T01:26:31;11.35;;;6.03;;
59308;SDS011;48433;53.016;-2.260;2022-12-18T01:28:59;16.88;;;6.63;;
59308;SDS011;48433;53.016;-2.260;2022-12-18T01:31:29;12.43;;;6.70;;
59308;SDS011;48433;53.016;-2.260;2022-12-18T01:33:57;11.70;;;6.25;;
59308;SDS011;48433;53.016;-2.260;2022-12-18T01:36:27;12.40;;;6.70;;
59308;SDS011;48433;53.016;-2.260;2022-12-18T01:38:58;11.38;;;6.25;;
59308;SDS011;48433;53.016;-2.260;2022-12-18T01:41:28;12.77;;;6.18;;
59308;SDS011;48433;53.016;-2.260;2022-12-18T01:52:45;15.05;;;6.68;;
59308;SDS011;48433;53.016;-2.260;2022-12-18T01:55:16;15.50;;;7.47;;
59308;SDS011;48433;53.016;-2.260;2022-12-18T01:57:47;14.50;;;7.93;;
59308;SDS011;48433;53.016;-2.260;2022-12-18T02:00:17;15.95;;;7.32;;
59308;SDS011;48433;53.016;-2.260;2022-12-18T02:02:46;12.93;;;7.45;;
59308;SDS011;48433;53.016;-2.260;2022-12-18T02:05:18;13.63;;;8.27;;
59308;SDS011;48433;53.016;-2.260;2022-12-18T02:10:17;13.07;;;8.93;;
59308;SDS011;48433;53.016;-2.260;2022-12-18T02:12:56;14.20;;;9.15;;
59308;SDS011;48433;53.016;-2.260;2022-12-18T02:15:27;16.30;;;8.45;;
59308;SDS011;48433;53.016;-2.260;2022-12-18T02:18:12;19.20;;;9.50;;
59308;SDS011;48433;53.016;-2.260;2022-12-18T02:21:18;15.15;;;9.30;;
59308;SDS011;48433;53.016;-2.260;2022-12-18T02:26:32;17.58;;;9.95;;
59308;SDS011;48433;53.016;-2.260;2022-12-18T02:29:08;14.60;;;8.45;;
59308;SDS011;48433;53.016;-2.260;2022-12-18T02:31:49;14.32;;;9.43;;
59308;SDS011;48433;53.016;-2.260;2022-12-18T02:34:19;18.60;;;10.20;;
59308;SDS011;48433;53.016;-2.260;2022-12-18T02:36:53;15.38;;;9.75;;
59308;SDS011;48433;53.016;-2.260;2022-12-18T02:39:22;15.40;;;9.52;;
59308;SDS011;48433;53.016;-2.260;2022-12-18T02:41:58;17.55;;;10.57;;
59308;SDS011;48433;53.016;-2.260;2022-12-18T02:44:26;17.05;;;10.13;;
59308;SDS011;48433;53.016;-2.260;2022-12-18T02:46:54;15.35;;;9.25;;
59308;SDS011;48433;53.016;-2.260;2022-12-18T02:59:53;17.92;;;11.40;;
59308;SDS011;48433;53.016;-2.260;2022-12-18T03:02:26;20.20;;;10.60;;
59308;SDS011;48433;53.016;-2.260;2022-12-18T03:05:25;16.15;;;9.55;;
59308;SDS011;48433;53.016;-2.260;2022-12-18T03:08:03;19.52;;;10.07;;
59308;SDS011;48433;53.016;-2.260;2022-12-18T03:10:38;18.73;;;10.48;;
59308;SDS011;48433;53.016;-2.260;2022-12-18T03:13:12;17.00;;;10.20;;
59308;SDS011;48433;53.016;-2.260;2022-12-18T03:15:42;16.45;;;10.40;;
59308;SDS011;48433;53.016;-2.260;2022-12-18T03:18:16;20.48;;;10.20;;
59308;SDS011;48433;53.016;-2.260;2022-12-18T03:20:45;21.58;;;10.35;;
59308;SDS011;48433;53.016;-2.260;2022-12-18T03:23:20;19.08;;;9.98;;
59308;SDS011;48433;53.016;-2.260;2022-12-18T03:25:54;16.92;;;9.93;;
59308;SDS011;48433;53.016;-2.260;2022-12-18T03:28:28;23.92;;;11.30;;
59308;SDS011;48433;53.016;-2.260;2022-12-18T03:31:02;16.13;;;9.75;;
59308;SDS011;48433;53.016;-2.260;2022-12-18T03:34:17;15.50;;;8.77;;
59308;SDS011;48433;53.016;-2.260;2022-12-18T03:36:31;16.90;;;10.25;;
59308;SDS011;48433;53.016;-2.260;2022-12-18T03:39:00;17.90;;;10.73;;
59308;SDS011;48433;53.016;-2.260;2022-12-18T03:47:18;18.77;;;10.73;;
59308;SDS011;48433;53.016;-2.260;2022-12-18T03:49:50;18.08;;;11.25;;
59308;SDS011;48433;53.016;-2.260;2022-12-18T03:54:49;19.80;;;11.07;;
59308;SDS011;48433;53.016;-2.260;2022-12-18T03:57:19;22.77;;;10.73;;
59308;SDS011;48433;53.016;-2.260;2022-12-18T03:59:53;23.00;;;11.48;;
59308;SDS011;48433;53.016;-2.260;2022-12-18T04:02:26;19.23;;;12.02;;
59308;SDS011;48433;53.016;-2.260;2022-12-18T04:05:00;23.92;;;13.88;;
59308;SDS011;48433;53.016;-2.260;2022-12-18T04:07:33;22.65;;;12.43;;
59308;SDS011;48433;53.016;-2.260;2022-12-18T04:10:04;21.48;;;12.27;;
59308;SDS011;48433;53.016;-2.260;2022-12-18T04:12:34;24.13;;;13.25;;
59308;SDS011;48433;53.016;-2.260;2022-12-18T04:15:07;28.35;;;13.10;;
59308;SDS011;48433;53.016;-2.260;2022-12-18T04:17:37;24.80;;;15.10;;
59308;SDS011;48433;53.016;-2.260;2022-12-18T04:20:05;24.67;;;13.50;;
59308;SDS011;48433;53.016;-2.260;2022-12-18T04:22:36;24.70;;;13.77;;
59308;SDS011;48433;53.016;-2.260;2022-12-18T04:25:04;24.92;;;13.20;;
59308;SDS011;48433;53.016;-2.260;2022-12-18T04:27:37;33.35;;;15.15;;
59308;SDS011;48433;53.016;-2.260;2022-12-18T04:30:05;24.33;;;13.48;;
59308;SDS011;48433;53.016;-2.260;2022-12-18T04:32:34;26.23;;;14.15;;
59308;SDS011;48433;53.016;-2.260;2022-12-18T04:35:02;25.35;;;13.50;;
59308;SDS011;48433;53.016;-2.260;2022-12-18T04:37:31;26.65;;;13.10;;
59308;SDS011;48433;53.016;-2.260;2022-12-18T04:39:59;22.02;;;13.68;;
59308;SDS011;48433;53.016;-2.260;2022-12-18T04:42:36;27.00;;;13.32;;
59308;SDS011;48433;53.016;-2.260;2022-12-18T04:45:04;31.08;;;14.15;;
59308;SDS011;48433;53.016;-2.260;2022-12-18T04:47:32;27.75;;;14.65;;
59308;SDS011;48433;53.016;-2.260;2022-12-18T04:50:02;25.35;;;14.27;;
59308;SDS011;48433;53.016;-2.260;2022-12-18T04:52:30;26.77;;;15.18;;
59308;SDS011;48433;53.016;-2.260;2022-12-18T04:54:57;28.30;;;15.40;;
59308;SDS011;48433;53.016;-2.260;2022-12-18T04:57:25;26.23;;;14.25;;
59308;SDS011;48433;53.016;-2.260;2022-12-18T04:59:53;31.80;;;16.75;;
59308;SDS011;48433;53.016;-2.260;2022-12-18T05:02:21;30.90;;;16.05;;
59308;SDS011;48433;53.016;-2.260;2022-12-18T05:04:49;36.70;;;18.38;;
59308;SDS011;48433;53.016;-2.260;2022-12-18T05:07:17;32.97;;;18.38;;
59308;SDS011;48433;53.016;-2.260;2022-12-18T05:09:45;42.25;;;20.52;;
59308;SDS011;48433;53.016;-2.260;2022-12-18T05:12:12;35.78;;;19.63;;
59308;SDS011;48433;53.016;-2.260;2022-12-18T05:14:40;35.03;;;19.77;;
59308;SDS011;48433;53.016;-2.260;2022-12-18T05:17:08;35.40;;;19.13;;
59308;SDS011;48433;53.016;-2.260;2022-12-18T05:19:37;36.63;;;19.17;;
59308;SDS011;48433;53.016;-2.260;2022-12-18T05:22:05;39.08;;;19.60;;
59308;SDS011;48433;53.016;-2.260;2022-12-18T05:24:33;44.42;;;20.50;;
59308;SDS011;48433;53.016;-2.260;2022-12-18T05:27:01;31.75;;;18.60;;
59308;SDS011;48433;53.016;-2.260;2022-12-18T05:29:29;42.58;;;20.05;;
59308;SDS011;48433;53.016;-2.260;2022-12-18T05:31:57;38.53;;;20.05;;
59308;SDS011;48433;53.016;-2.260;2022-12-18T05:34:25;45.08;;;23.75;;
59308;SDS011;48433;53.016;-2.260;2022-12-18T05:36:52;43.17;;;21.10;;
59308;SDS011;48433;53.016;-2.260;2022-12-18T05:39:20;45.13;;;21.48;;
59308;SDS011;48433;53.016;-2.260;2022-12-18T05:41:48;36.22;;;19.40;;
59308;SDS011;48433;53.016;-2.260;2022-12-18T05:44:16;43.40;;;21.75;;
59308;SDS011;48433;53.016;-2.260;2022-12-18T05:46:44;39.92;;;19.77;;
59308;SDS011;48433;53.016;-2.260;2022-12-18T05:49:12;44.08;;;22.25;;
59308;SDS011;48433;53.016;-2.260;2022-12-18T05:51:40;38.30;;;19.85;;
59308;SDS011;48433;53.016;-2.260;2022-12-18T05:54:08;42.17;;;19.67;;
59308;SDS011;48433;53.016;-2.260;2022-12-18T05:56:36;39.67;;;18.73;;
59308;SDS011;48433;53.016;-2.260;2022-12-18T05:59:04;36.85;;;19.40;;
59308;SDS011;48433;53.016;-2.260;2022-12-18T06:01:32;35.45;;;20.45;;
59308;SDS011;48433;53.016;-2.260;2022-12-18T06:03:59;37.10;;;21.00;;
59308;SDS011;48433;53.016;-2.260;2022-12-18T06:06:28;38.25;;;19.42;;
59308;SDS011;48433;53.016;-2.260;2022-12-18T06:08:56;33.65;;;17.38;;
59308;SDS011;48433;53.016;-2.260;2022-12-18T06:11:25;43.95;;;21.58;;
59308;SDS011;48433;53.016;-2.260;2022-12-18T06:13:54;35.08;;;15.70;;
59308;SDS011;48433;53.016;-2.260;2022-12-18T06:16:25;48.30;;;22.38;;
59308;SDS011;48433;53.016;-2.260;2022-12-18T06:18:55;33.97;;;19.50;;
59308;SDS011;48433;53.016;-2.260;2022-12-18T06:21:24;41.53;;;20.40;;
59308;SDS011;48433;53.016;-2.260;2022-12-18T06:23:51;43.75;;;18.63;;
59308;SDS011;48433;53.016;-2.260;2022-12-18T06:26:20;31.75;;;16.55;;
59308;SDS011;48433;53.016;-2.260;2022-12-18T06:28:54;45.05;;;22.58;;
59308;SDS011;48433;53.016;-2.260;2022-12-18T06:31:21;47.47;;;23.55;;
59308;SDS011;48433;53.016;-2.260;2022-12-18T06:33:50;43.65;;;20.35;;
59308;SDS011;48433;53.016;-2.260;2022-12-18T06:36:17;40.17;;;21.85;;
59308;SDS011;48433;53.016;-2.260;2022-12-18T06:38:46;43.15;;;19.73;;
59308;SDS011;48433;53.016;-2.260;2022-12-18T06:41:18;43.88;;;24.48;;
59308;SDS011;48433;53.016;-2.260;2022-12-18T06:43:47;42.92;;;22.05;;
59308;SDS011;48433;53.016;-2.260;2022-12-18T06:46:15;43.83;;;21.08;;
59308;SDS011;48433;53.016;-2.260;2022-12-18T06:48:46;41.65;;;21.77;;
59308;SDS011;48433;53.016;-2.260;2022-12-18T06:51:19;42.05;;;20.40;;
59308;SDS011;48433;53.016;-2.260;2022-12-18T06:53:48;47.03;;;22.08;;
59308;SDS011;48433;53.016;-2.260;2022-12-18T06:56:16;43.78;;;21.75;;
59308;SDS011;48433;53.016;-2.260;2022-12-18T06:58:44;46.05;;;22.75;;
59308;SDS011;48433;53.016;-2.260;2022-12-18T07:01:13;43.60;;;21.25;;
59308;SDS011;48433;53.016;-2.260;2022-12-18T07:03:41;44.85;;;22.48;;
59308;SDS011;48433;53.016;-2.260;2022-12-18T07:06:14;44.58;;;24.55;;
59308;SDS011;48433;53.016;-2.260;2022-12-18T07:08:43;47.00;;;25.10;;
59308;SDS011;48433;53.016;-2.260;2022-12-18T07:11:11;52.03;;;24.23;;
59308;SDS011;48433;53.016;-2.260;2022-12-18T07:13:39;50.63;;;24.73;;
59308;SDS011;48433;53.016;-2.260;2022-12-18T07:16:08;43.80;;;21.42;;
59308;SDS011;48433;53.016;-2.260;2022-12-18T07:18:51;45.05;;;22.75;;
59308;SDS011;48433;53.016;-2.260;2022-12-18T07:21:19;45.10;;;22.75;;
59308;SDS011;48433;53.016;-2.260;2022-12-18T07:23:47;47.83;;;23.77;;
59308;SDS011;48433;53.016;-2.260;2022-12-18T07:26:16;41.33;;;20.80;;
59308;SDS011;48433;53.016;-2.260;2022-12-18T07:28:44;50.17;;;23.50;;
59308;SDS011;48433;53.016;-2.260;2022-12-18T07:31:13;50.30;;;23.50;;
59308;SDS011;48433;53.016;-2.260;2022-12-18T07:33:43;44.28;;;22.55;;
59308;SDS011;48433;53.016;-2.260;2022-12-18T07:36:11;52.85;;;24.63;;
59308;SDS011;48433;53.016;-2.260;2022-12-18T07:38:39;47.63;;;23.27;;
59308;SDS011;48433;53.016;-2.260;2022-12-18T07:41:11;45.17;;;24.88;;
59308;SDS011;48433;53.016;-2.260;2022-12-18T07:43:40;43.53;;;22.73;;
59308;SDS011;48433;53.016;-2.260;2022-12-18T07:46:09;48.78;;;23.42;;
59308;SDS011;48433;53.016;-2.260;2022-12-18T07:48:42;42.35;;;23.48;;
59308;SDS011;48433;53.016;-2.260;2022-12-18T07:51:16;44.28;;;24.27;;
59308;SDS011;48433;53.016;-2.260;2022-12-18T07:53:44;48.30;;;25.95;;
59308;SDS011;48433;53.016;-2.260;2022-12-18T07:56:16;46.88;;;22.98;;
59308;SDS011;48433;53.016;-2.260;2022-12-18T07:58:54;46.30;;;22.67;;
59308;SDS011;48433;53.016;-2.260;2022-12-18T08:01:22;49.08;;;23.67;;
59308;SDS011;48433;53.016;-2.260;2022-12-18T08:03:50;51.70;;;23.92;;
59308;SDS011;48433;53.016;-2.260;2022-12-18T08:06:18;46.88;;;23.25;;
59308;SDS011;48433;53.016;-2.260;2022-12-18T08:08:53;49.95;;;23.17;;
59308;SDS011;48433;53.016;-2.260;2022-12-18T08:11:22;51.63;;;26.05;;
59308;SDS011;48433;53.016;-2.260;2022-12-18T08:13:51;52.60;;;27.45;;
59308;SDS011;48433;53.016;-2.260;2022-12-18T08:16:19;49.63;;;23.73;;
59308;SDS011;48433;53.016;-2.260;2022-12-18T08:18:47;49.70;;;23.83;;
59308;SDS011;48433;53.016;-2.260;2022-12-18T08:21:21;43.60;;;22.35;;
59308;SDS011;48433;53.016;-2.260;2022-12-18T08:23:50;45.08;;;22.70;;
59308;SDS011;48433;53.016;-2.260;2022-12-18T08:26:18;46.95;;;24.35;;
59308;SDS011;48433;53.016;-2.260;2022-12-18T08:28:48;38.92;;;21.45;;
59308;SDS011;48433;53.016;-2.260;2022-12-18T08:31:17;49.72;;;22.20;;
59308;SDS011;48433;53.016;-2.260;2022-12-18T08:33:50;46.63;;;23.73;;
59308;SDS011;48433;53.016;-2.260;2022-12-18T08:36:19;48.22;;;23.73;;
59308;SDS011;48433;53.016;-2.260;2022-12-18T08:38:48;47.28;;;23.23;;
59308;SDS011;48433;53.016;-2.260;2022-12-18T08:41:16;55.97;;;26.08;;
59308;SDS011;48433;53.016;-2.260;2022-12-18T08:43:45;49.65;;;24.50;;
59308;SDS011;48433;53.016;-2.260;2022-12-18T08:46:34;52.53;;;23.88;;
59308;SDS011;48433;53.016;-2.260;2022-12-18T08:49:05;44.90;;;21.75;;
59308;SDS011;48433;53.016;-2.260;2022-12-18T08:51:34;51.40;;;24.42;;
59308;SDS011;48433;53.016;-2.260;2022-12-18T08:54:02;56.33;;;26.02;;
59308;SDS011;48433;53.016;-2.260;2022-12-18T08:56:32;54.90;;;26.45;;
59308;SDS011;48433;53.016;-2.260;2022-12-18T08:59:01;50.55;;;23.60;;
59308;SDS011;48433;53.016;-2.260;2022-12-18T09:01:29;56.78;;;25.45;;
59308;SDS011;48433;53.016;-2.260;2022-12-18T09:03:57;46.25;;;23.42;;
59308;SDS011;48433;53.016;-2.260;2022-12-18T09:06:25;56.47;;;27.98;;
59308;SDS011;48433;53.016;-2.260;2022-12-18T09:08:53;50.72;;;24.05;;
59308;SDS011;48433;53.016;-2.260;2022-12-18T09:11:22;53.13;;;25.23;;
59308;SDS011;48433;53.016;-2.260;2022-12-18T09:13:51;44.97;;;21.95;;
59308;SDS011;48433;53.016;-2.260;2022-12-18T09:16:19;48.13;;;25.00;;
59308;SDS011;48433;53.016;-2.260;2022-12-18T09:18:54;42.13;;;20.83;;
59308;SDS011;48433;53.016;-2.260;2022-12-18T09:21:26;53.25;;;24.67;;
59308;SDS011;48433;53.016;-2.260;2022-12-18T09:23:55;48.25;;;22.60;;
59308;SDS011;48433;53.016;-2.260;2022-12-18T09:26:23;49.28;;;22.60;;
59308;SDS011;48433;53.016;-2.260;2022-12-18T09:28:52;55.22;;;24.90;;
59308;SDS011;48433;53.016;-2.260;2022-12-18T09:31:20;43.65;;;20.00;;
59308;SDS011;48433;53.016;-2.260;2022-12-18T09:33:49;48.05;;;22.00;;
59308;SDS011;48433;53.016;-2.260;2022-12-18T09:36:17;37.80;;;20.58;;
59308;SDS011;48433;53.016;-2.260;2022-12-18T09:38:45;41.85;;;19.00;;
59308;SDS011;48433;53.016;-2.260;2022-12-18T09:44:24;40.72;;;20.98;;
59308;SDS011;48433;53.016;-2.260;2022-12-18T09:46:54;41.10;;;18.77;;
59308;SDS011;48433;53.016;-2.260;2022-12-18T09:49:26;41.25;;;19.38;;
59308;SDS011;48433;53.016;-2.260;2022-12-18T09:51:59;33.75;;;18.75;;
59308;SDS011;48433;53.016;-2.260;2022-12-18T09:54:38;36.33;;;18.92;;
59308;SDS011;48433;53.016;-2.260;2022-12-18T09:57:12;34.92;;;18.25;;
59308;SDS011;48433;53.016;-2.260;2022-12-18T09:59:40;33.63;;;16.35;;
59308;SDS011;48433;53.016;-2.260;2022-12-18T10:02:21;32.55;;;16.20;;
59308;SDS011;48433;53.016;-2.260;2022-12-18T10:07:39;37.13;;;18.38;;
59308;SDS011;48433;53.016;-2.260;2022-12-18T10:12:58;41.58;;;20.85;;
59308;SDS011;48433;53.016;-2.260;2022-12-18T10:20:32;34.38;;;16.98;;
59308;SDS011;48433;53.016;-2.260;2022-12-18T10:23:12;39.65;;;19.65;;
59308;SDS011;48433;53.016;-2.260;2022-12-18T10:28:17;40.70;;;17.65;;
59308;SDS011;48433;53.016;-2.260;2022-12-18T10:30:46;36.72;;;17.52;;
59308;SDS011;48433;53.016;-2.260;2022-12-18T10:33:16;36.75;;;17.23;;
59308;SDS011;48433;53.016;-2.260;2022-12-18T10:35:44;33.40;;;17.70;;
59308;SDS011;48433;53.016;-2.260;2022-12-18T10:41:03;30.33;;;14.98;;
59308;SDS011;48433;53.016;-2.260;2022-12-18T10:48:28;29.92;;;17.10;;
59308;SDS011;48433;53.016;-2.260;2022-12-18T10:50:57;32.42;;;16.40;;
59308;SDS011;48433;53.016;-2.260;2022-12-18T10:53:41;26.88;;;15.50;;
59308;SDS011;48433;53.016;-2.260;2022-12-18T10:56:10;42.45;;;18.90;;
59308;SDS011;48433;53.016;-2.260;2022-12-18T10:58:38;29.50;;;13.43;;
59308;SDS011;48433;53.016;-2.260;2022-12-18T11:01:17;31.63;;;17.08;;
59308;SDS011;48433;53.016;-2.260;2022-12-18T11:06:28;26.63;;;13.85;;
59308;SDS011;48433;53.016;-2.260;2022-12-18T11:08:57;31.40;;;15.65;;
59308;SDS011;48433;53.016;-2.260;2022-12-18T11:11:40;41.33;;;16.23;;
59308;SDS011;48433;53.016;-2.260;2022-12-18T11:14:18;33.75;;;15.68;;
59308;SDS011;48433;53.016;-2.260;2022-12-18T11:16:53;31.10;;;16.42;;
59308;SDS011;48433;53.016;-2.260;2022-12-18T11:19:43;24.75;;;13.95;;
59308;SDS011;48433;53.016;-2.260;2022-12-18T11:22:18;28.40;;;15.05;;
59308;SDS011;48433;53.016;-2.260;2022-12-18T11:24:52;29.20;;;14.02;;
59308;SDS011;48433;53.016;-2.260;2022-12-18T11:27:40;31.10;;;15.98;;
59308;SDS011;48433;53.016;-2.260;2022-12-18T11:32:53;33.38;;;13.05;;
59308;SDS011;48433;53.016;-2.260;2022-12-18T11:38:20;27.63;;;14.80;;
59308;SDS011;48433;53.016;-2.260;2022-12-18T11:43:41;31.23;;;15.65;;
59308;SDS011;48433;53.016;-2.260;2022-12-18T11:46:13;31.90;;;14.10;;
59308;SDS011;48433;53.016;-2.260;2022-12-18T11:51:15;33.55;;;15.65;;
59308;SDS011;48433;53.016;-2.260;2022-12-18T11:53:53;27.98;;;15.20;;
59308;SDS011;48433;53.016;-2.260;2022-12-18T11:56:31;25.17;;;13.15;;
59308;SDS011;48433;53.016;-2.260;2022-12-18T12:01:35;33.15;;;15.85;;
59308;SDS011;48433;53.016;-2.260;2022-12-18T12:08:04;30.65;;;15.57;;
59308;SDS011;48433;53.016;-2.260;2022-12-18T12:13:08;35.30;;;16.45;;
59308;SDS011;48433;53.016;-2.260;2022-12-18T12:21:09;29.20;;;14.07;;
59308;SDS011;48433;53.016;-2.260;2022-12-18T12:26:08;28.38;;;15.15;;
59308;SDS011;48433;53.016;-2.260;2022-12-18T12:31:34;33.75;;;16.45;;
59308;SDS011;48433;53.016;-2.260;2022-12-18T12:34:23;29.52;;;17.40;;
59308;SDS011;48433;53.016;-2.260;2022-12-18T12:39:47;31.25;;;16.95;;
59308;SDS011;48433;53.016;-2.260;2022-12-18T12:42:27;35.42;;;19.08;;
59308;SDS011;48433;53.016;-2.260;2022-12-18T12:45:39;29.23;;;16.42;;
59308;SDS011;48433;53.016;-2.260;2022-12-18T12:48:21;33.05;;;16.75;;
59308;SDS011;48433;53.016;-2.260;2022-12-18T12:51:19;33.95;;;18.05;;
59308;SDS011;48433;53.016;-2.260;2022-12-18T12:53:48;34.92;;;17.25;;
59308;SDS011;48433;53.016;-2.260;2022-12-18T12:56:18;30.15;;;16.15;;
59308;SDS011;48433;53.016;-2.260;2022-12-18T13:01:28;35.15;;;17.90;;
59308;SDS011;48433;53.016;-2.260;2022-12-18T13:08:59;38.00;;;23.33;;
59308;SDS011;48433;53.016;-2.260;2022-12-18T13:11:29;35.75;;;15.35;;
59308;SDS011;48433;53.016;-2.260;2022-12-18T13:22:37;41.50;;;22.52;;
59308;SDS011;48433;53.016;-2.260;2022-12-18T13:43:26;39.28;;;19.65;;
59308;SDS011;48433;53.016;-2.260;2022-12-18T13:48:23;29.73;;;16.92;;
59308;SDS011;48433;53.016;-2.260;2022-12-18T13:50:56;41.08;;;17.73;;
59308;SDS011;48433;53.016;-2.260;2022-12-18T13:56:09;32.95;;;19.92;;
59308;SDS011;48433;53.016;-2.260;2022-12-18T13:58:42;43.92;;;23.02;;
59308;SDS011;48433;53.016;-2.260;2022-12-18T14:01:23;35.60;;;18.67;;
59308;SDS011;48433;53.016;-2.260;2022-12-18T14:04:07;42.67;;;20.77;;
59308;SDS011;48433;53.016;-2.260;2022-12-18T14:06:45;34.50;;;18.30;;
59308;SDS011;48433;53.016;-2.260;2022-12-18T14:09:14;40.90;;;20.13;;
59308;SDS011;48433;53.016;-2.260;2022-12-18T14:11:50;43.15;;;23.13;;
59308;SDS011;48433;53.016;-2.260;2022-12-18T14:14:18;40.05;;;19.98;;
59308;SDS011;48433;53.016;-2.260;2022-12-18T14:16:46;32.08;;;17.75;;
59308;SDS011;48433;53.016;-2.260;2022-12-18T14:19:15;39.72;;;21.20;;
59308;SDS011;48433;53.016;-2.260;2022-12-18T14:21:45;42.03;;;21.20;;
59308;SDS011;48433;53.016;-2.260;2022-12-18T14:24:14;36.35;;;20.27;;
59308;SDS011;48433;53.016;-2.260;2022-12-18T14:26:46;42.88;;;22.15;;
59308;SDS011;48433;53.016;-2.260;2022-12-18T14:29:20;44.08;;;21.85;;
59308;SDS011;48433;53.016;-2.260;2022-12-18T14:34:48;42.88;;;22.67;;
59308;SDS011;48433;53.016;-2.260;2022-12-18T14:37:21;45.75;;;22.63;;
59308;SDS011;48433;53.016;-2.260;2022-12-18T14:39:53;39.85;;;19.58;;
59308;SDS011;48433;53.016;-2.260;2022-12-18T14:42:21;42.05;;;20.38;;
59308;SDS011;48433;53.016;-2.260;2022-12-18T14:44:49;47.25;;;21.55;;
59308;SDS011;48433;53.016;-2.260;2022-12-18T14:47:37;49.25;;;25.35;;
59308;SDS011;48433;53.016;-2.260;2022-12-18T14:50:11;38.60;;;20.10;;
59308;SDS011;48433;53.016;-2.260;2022-12-18T14:52:39;35.47;;;19.15;;
59308;SDS011;48433;53.016;-2.260;2022-12-18T14:55:14;31.58;;;15.00;;
59308;SDS011;48433;53.016;-2.260;2022-12-18T14:57:42;34.47;;;17.15;;
59308;SDS011;48433;53.016;-2.260;2022-12-18T15:00:15;31.70;;;17.98;;
59308;SDS011;48433;53.016;-2.260;2022-12-18T15:02:46;33.75;;;18.63;;
59308;SDS011;48433;53.016;-2.260;2022-12-18T15:05:19;27.33;;;15.80;;
59308;SDS011;48433;53.016;-2.260;2022-12-18T15:07:53;41.13;;;22.08;;
59308;SDS011;48433;53.016;-2.260;2022-12-18T15:18:01;34.28;;;18.85;;
59308;SDS011;48433;53.016;-2.260;2022-12-18T15:20:31;40.58;;;19.63;;
59308;SDS011;48433;53.016;-2.260;2022-12-18T15:22:59;43.00;;;21.70;;
59308;SDS011;48433;53.016;-2.260;2022-12-18T15:25:34;42.60;;;21.33;;
59308;SDS011;48433;53.016;-2.260;2022-12-18T15:28:12;41.03;;;21.95;;
59308;SDS011;48433;53.016;-2.260;2022-12-18T15:30:57;37.75;;;18.85;;
59308;SDS011;48433;53.016;-2.260;2022-12-18T15:33:27;36.95;;;21.75;;
59308;SDS011;48433;53.016;-2.260;2022-12-18T15:35:57;37.38;;;19.55;;
59308;SDS011;48433;53.016;-2.260;2022-12-18T15:38:26;36.78;;;17.35;;
59308;SDS011;48433;53.016;-2.260;2022-12-18T15:40:55;36.80;;;18.08;;
59308;SDS011;48433;53.016;-2.260;2022-12-18T15:43:23;35.53;;;18.23;;
59308;SDS011;48433;53.016;-2.260;2022-12-18T15:46:01;37.05;;;20.25;;
59308;SDS011;48433;53.016;-2.260;2022-12-18T15:48:32;35.00;;;18.58;;
59308;SDS011;48433;53.016;-2.260;2022-12-18T15:51:01;33.05;;;17.90;;
59308;SDS011;48433;53.016;-2.260;2022-12-18T15:53:30;27.05;;;17.98;;
59308;SDS011;48433;53.016;-2.260;2022-12-18T15:55:58;31.50;;;17.05;;
59308;SDS011;48433;53.016;-2.260;2022-12-18T15:58:46;30.77;;;16.70;;
59308;SDS011;48433;53.016;-2.260;2022-12-18T16:01:14;30.48;;;17.05;;
59308;SDS011;48433;53.016;-2.260;2022-12-18T16:03:45;28.90;;;17.00;;
59308;SDS011;48433;53.016;-2.260;2022-12-18T16:06:13;29.92;;;16.20;;
59308;SDS011;48433;53.016;-2.260;2022-12-18T16:08:41;30.50;;;16.58;;
59308;SDS011;48433;53.016;-2.260;2022-12-18T16:16:45;28.85;;;14.73;;
59308;SDS011;48433;53.016;-2.260;2022-12-18T16:19:13;23.38;;;13.95;;
59308;SDS011;48433;53.016;-2.260;2022-12-18T16:21:41;25.90;;;14.18;;
59308;SDS011;48433;53.016;-2.260;2022-12-18T16:24:19;31.05;;;15.75;;
59308;SDS011;48433;53.016;-2.260;2022-12-18T16:26:51;23.63;;;13.77;;
59308;SDS011;48433;53.016;-2.260;2022-12-18T16:29:19;28.13;;;13.75;;
59308;SDS011;48433;53.016;-2.260;2022-12-18T16:31:51;28.73;;;15.55;;
59308;SDS011;48433;53.016;-2.260;2022-12-18T16:34:23;21.98;;;13.32;;
59308;SDS011;48433;53.016;-2.260;2022-12-18T16:37:04;25.98;;;15.27;;
59308;SDS011;48433;53.016;-2.260;2022-12-18T16:39:33;20.92;;;13.73;;
59308;SDS011;48433;53.016;-2.260;2022-12-18T16:42:02;21.42;;;11.70;;
59308;SDS011;48433;53.016;-2.260;2022-12-18T16:44:32;22.52;;;13.43;;
59308;SDS011;48433;53.016;-2.260;2022-12-18T16:47:02;20.98;;;12.15;;
59308;SDS011;48433;53.016;-2.260;2022-12-18T16:49:30;19.00;;;11.20;;
59308;SDS011;48433;53.016;-2.260;2022-12-18T16:51:58;19.80;;;12.07;;
59308;SDS011;48433;53.016;-2.260;2022-12-18T16:54:26;18.77;;;11.90;;
59308;SDS011;48433;53.016;-2.260;2022-12-18T16:56:56;19.35;;;11.77;;
59308;SDS011;48433;53.016;-2.260;2022-12-18T16:59:24;17.45;;;10.80;;
59308;SDS011;48433;53.016;-2.260;2022-12-18T17:01:53;19.52;;;11.35;;
59308;SDS011;48433;53.016;-2.260;2022-12-18T17:04:23;18.67;;;10.68;;